Time;durP1;ratioP1;P1;durP2;ratioP2;P2;SDS_P1;SDS_P2;PMS_P1;PMS_P2;Temp;Humidity;BMP_temperature;BMP_pressure;BME280_temperature;BME280_humidity;BME280_pressure;Samples;Min_cycle;Max_cycle;Signal;HPM_P1;HPM_P2
2021/09/28 00:02:17;;;;;;;7.67;2.83;;;;;;;;;;5033376;28;20455;-60
2021/09/28 00:04:44;;;;;;;8.03;2.70;;;;;;;;;;5033325;28;20443;-61
2021/09/28 00:07:13;;;;;;;4.70;2.93;;;;;;;;;;5033357;28;20448;-60
2021/09/28 00:09:40;;;;;;;7.90;2.80;;;;;;;;;;5033284;28;20441;-61
2021/09/28 00:12:08;;;;;;;6.33;2.70;;;;;;;;;;5033315;28;20449;-60
2021/09/28 00:14:35;;;;;;;5.33;3.40;;;;;;;;;;5032916;28;20479;-60
2021/09/28 00:17:02;;;;;;;9.83;3.27;;;;;;;;;;5034176;28;20531;-60
2021/09/28 00:19:29;;;;;;;4.43;2.80;;;;;;;;;;5032964;28;20799;-59
2021/09/28 00:21:57;;;;;;;4.83;3.47;;;;;;;;;;5032918;28;20444;-61
2021/09/28 00:24:25;;;;;;;6.73;2.87;;;;;;;;;;5035480;28;20874;-60
2021/09/28 00:26:53;;;;;;;8.63;3.40;;;;;;;;;;5036936;28;20880;-60
2021/09/28 00:29:20;;;;;;;8.03;3.23;;;;;;;;;;5037194;28;20455;-61
2021/09/28 00:31:47;;;;;;;3.50;3.20;;;;;;;;;;5036884;28;20449;-60
2021/09/28 00:34:14;;;;;;;12.57;3.27;;;;;;;;;;5037025;28;20533;-61
2021/09/28 00:36:41;;;;;;;8.10;3.80;;;;;;;;;;5036980;28;20460;-60
2021/09/28 00:39:09;;;;;;;7.53;3.77;;;;;;;;;;5037058;28;20444;-60
2021/09/28 00:41:37;;;;;;;5.50;3.23;;;;;;;;;;5037060;28;20448;-60
2021/09/28 00:44:05;;;;;;;4.90;3.20;;;;;;;;;;5036706;28;20446;-61
2021/09/28 00:46:32;;;;;;;7.87;3.57;;;;;;;;;;5036557;28;20972;-60
2021/09/28 00:48:59;;;;;;;6.77;3.30;;;;;;;;;;5038050;28;20447;-62
2021/09/28 00:51:27;;;;;;;7.17;3.67;;;;;;;;;;5037909;28;20511;-61
2021/09/28 00:53:55;;;;;;;9.57;3.83;;;;;;;;;;5036394;28;21091;-60
2021/09/28 00:56:23;;;;;;;4.63;3.67;;;;;;;;;;5036662;28;20459;-61
2021/09/28 00:58:52;;;;;;;6.47;3.67;;;;;;;;;;5036701;28;20511;-61
2021/09/28 01:01:19;;;;;;;8.93;4.10;;;;;;;;;;5036645;28;20518;-61
2021/09/28 01:03:46;;;;;;;10.63;3.30;;;;;;;;;;5036303;28;20867;-61
2021/09/28 01:06:14;;;;;;;6.33;4.00;;;;;;;;;;5036228;28;20515;-60
2021/09/28 01:08:41;;;;;;;7.20;3.57;;;;;;;;;;5036542;28;20451;-61
2021/09/28 01:11:08;;;;;;;10.43;3.70;;;;;;;;;;5036246;28;21006;-61
2021/09/28 01:13:35;;;;;;;11.83;3.97;;;;;;;;;;5036450;28;20546;-60
2021/09/28 01:16:11;;;;;;;9.80;4.03;;;;;;;;;;5036082;28;20483;-60
2021/09/28 01:18:39;;;;;;;5.83;3.27;;;;;;;;;;5036467;28;20783;-60
2021/09/28 01:21:09;;;;;;;5.40;4.13;;;;;;;;;;5036414;28;20480;-60
2021/09/28 01:23:37;;;;;;;6.37;3.80;;;;;;;;;;5035968;28;20497;-60
2021/09/28 01:26:04;;;;;;;10.17;3.47;;;;;;;;;;5036143;28;20890;-60
2021/09/28 01:28:31;;;;;;;6.53;3.40;;;;;;;;;;5036184;28;20441;-60
2021/09/28 01:30:59;;;;;;;9.80;3.90;;;;;;;;;;5036259;28;20447;-60
2021/09/28 01:33:26;;;;;;;10.10;4.13;;;;;;;;;;5036013;28;20897;-60
2021/09/28 01:35:53;;;;;;;8.70;3.43;;;;;;;;;;5035255;28;20909;-61
2021/09/28 01:38:22;;;;;;;10.93;3.70;;;;;;;;;;5035919;28;20440;-60
2021/09/28 01:40:50;;;;;;;8.03;3.77;;;;;;;;;;5035642;28;20445;-60
2021/09/28 01:43:19;;;;;;;6.40;3.37;;;;;;;;;;5035957;28;20849;-61
2021/09/28 01:45:47;;;;;;;11.27;4.00;;;;;;;;;;5035774;28;20465;-61
2021/09/28 01:48:15;;;;;;;7.73;4.00;;;;;;;;;;5035469;28;20446;-60
2021/09/28 01:50:42;;;;;;;9.67;3.60;;;;;;;;;;5035647;28;20523;-61
2021/09/28 01:53:09;;;;;;;9.03;4.80;;;;;;;;;;5035307;28;20510;-60
2021/09/28 01:55:38;;;;;;;7.20;3.43;;;;;;;;;;5035638;28;20465;-60
2021/09/28 01:58:05;;;;;;;8.53;3.77;;;;;;;;;;5035587;28;20503;-60
2021/09/28 02:00:32;;;;;;;9.83;4.50;;;;;;;;;;5035214;28;20507;-61
2021/09/28 02:03:00;;;;;;;9.33;4.23;;;;;;;;;;5035536;28;20443;-60
2021/09/28 02:05:28;;;;;;;7.87;4.00;;;;;;;;;;5035079;28;20457;-60
2021/09/28 02:07:55;;;;;;;5.87;3.70;;;;;;;;;;5035123;28;20444;-60
2021/09/28 02:10:22;;;;;;;6.63;3.97;;;;;;;;;;5035351;28;20449;-61
2021/09/28 02:12:51;;;;;;;7.50;4.20;;;;;;;;;;5035152;28;20937;-60
2021/09/28 02:15:18;;;;;;;10.67;4.90;;;;;;;;;;5035112;28;20496;-61
2021/09/28 02:17:46;;;;;;;6.43;4.30;;;;;;;;;;5035387;28;20819;-60
2021/09/28 02:20:13;;;;;;;11.00;5.10;;;;;;;;;;5034830;28;20449;-60
2021/09/28 02:22:40;;;;;;;8.10;4.77;;;;;;;;;;5034957;28;21004;-60
2021/09/28 02:25:09;;;;;;;9.43;5.10;;;;;;;;;;5035097;28;20826;-60
2021/09/28 02:27:36;;;;;;;11.30;5.27;;;;;;;;;;5034755;28;21002;-60
2021/09/28 02:30:05;;;;;;;9.20;5.60;;;;;;;;;;5034782;28;20445;-60
2021/09/28 02:32:32;;;;;;;9.63;5.10;;;;;;;;;;5034990;28;20865;-60
2021/09/28 02:35:00;;;;;;;7.33;4.87;;;;;;;;;;5034744;28;20477;-61
2021/09/28 02:37:27;;;;;;;8.80;5.03;;;;;;;;;;5034837;28;20881;-60
2021/09/28 02:39:54;;;;;;;10.20;5.10;;;;;;;;;;5034830;28;20441;-60
2021/09/28 02:42:21;;;;;;;11.17;4.80;;;;;;;;;;5034419;28;20972;-60
2021/09/28 02:44:51;;;;;;;8.63;4.13;;;;;;;;;;5034307;28;20519;-61
2021/09/28 02:47:20;;;;;;;10.47;4.83;;;;;;;;;;5033921;28;20450;-60
2021/09/28 02:49:47;;;;;;;10.40;4.60;;;;;;;;;;5034597;28;20443;-59
2021/09/28 02:52:14;;;;;;;9.03;4.53;;;;;;;;;;5034227;28;20995;-59
2021/09/28 02:54:41;;;;;;;15.20;6.00;;;;;;;;;;5034082;28;20609;-59
2021/09/28 02:57:09;;;;;;;9.00;4.17;;;;;;;;;;5034389;28;20463;-60
2021/09/28 02:59:36;;;;;;;6.00;4.73;;;;;;;;;;5034085;28;20865;-60
2021/09/28 03:02:03;;;;;;;10.40;4.33;;;;;;;;;;5034423;28;20445;-60
2021/09/28 03:04:32;;;;;;;4.37;3.97;;;;;;;;;;5034393;28;20875;-60
2021/09/28 03:06:59;;;;;;;8.23;4.00;;;;;;;;;;5034192;28;20545;-60
2021/09/28 03:09:26;;;;;;;7.83;4.57;;;;;;;;;;5033937;28;20447;-60
2021/09/28 03:11:55;;;;;;;7.73;3.87;;;;;;;;;;5033871;28;20447;-60
2021/09/28 03:14:22;;;;;;;6.03;4.23;;;;;;;;;;5033976;28;20909;-59
2021/09/28 03:16:50;;;;;;;6.13;4.20;;;;;;;;;;5033587;28;20503;-59
2021/09/28 03:19:17;;;;;;;10.07;3.80;;;;;;;;;;5035600;28;20442;-59
2021/09/28 03:21:46;;;;;;;4.93;3.73;;;;;;;;;;5034232;28;20537;-60
2021/09/28 03:24:13;;;;;;;6.53;4.17;;;;;;;;;;5033573;28;20451;-60
2021/09/28 03:26:40;;;;;;;7.40;4.30;;;;;;;;;;5033831;28;20528;-60
2021/09/28 03:29:08;;;;;;;9.70;3.47;;;;;;;;;;5033924;28;20445;-60
2021/09/28 03:31:35;;;;;;;7.60;4.00;;;;;;;;;;5033558;28;20934;-59
2021/09/28 03:34:02;;;;;;;5.07;3.70;;;;;;;;;;5033679;28;20486;-59
2021/09/28 03:36:29;;;;;;;5.17;3.63;;;;;;;;;;5033677;28;20469;-59
2021/09/28 03:38:58;;;;;;;5.97;3.80;;;;;;;;;;5034069;28;20441;-59
2021/09/28 03:41:25;;;;;;;5.97;3.50;;;;;;;;;;5033936;28;20500;-59
2021/09/28 03:43:52;;;;;;;13.60;3.90;;;;;;;;;;5033994;28;20446;-59
2021/09/28 03:46:20;;;;;;;4.67;3.70;;;;;;;;;;5033479;28;20908;-60
2021/09/28 03:48:47;;;;;;;7.20;3.37;;;;;;;;;;5034103;28;20449;-61
2021/09/28 03:51:15;;;;;;;5.67;3.43;;;;;;;;;;5033720;28;20447;-59
2021/09/28 03:53:43;;;;;;;5.20;2.90;;;;;;;;;;5033425;28;20454;-61
2021/09/28 03:56:11;;;;;;;9.50;3.00;;;;;;;;;;5033209;28;20973;-61
2021/09/28 03:58:39;;;;;;;6.30;3.50;;;;;;;;;;5032884;28;20942;-59
2021/09/28 04:01:06;;;;;;;7.80;3.70;;;;;;;;;;5033524;28;20443;-61
2021/09/28 04:03:33;;;;;;;5.20;2.90;;;;;;;;;;5033260;28;21000;-59
2021/09/28 04:08:39;;;;;;;8.60;3.23;;;;;;;;;;5093163;27;20537;-60
2021/09/28 04:11:07;;;;;;;7.13;3.00;;;;;;;;;;5095225;28;20503;-61
2021/09/28 04:13:34;;;;;;;4.00;2.63;;;;;;;;;;5093726;28;20450;-61
2021/09/28 04:16:05;;;;;;;5.37;3.40;;;;;;;;;;5093037;28;20488;-59
2021/09/28 04:18:32;;;;;;;3.40;2.53;;;;;;;;;;5093292;28;20861;-61
2021/09/28 04:20:59;;;;;;;8.60;3.07;;;;;;;;;;5094729;28;20499;-60
2021/09/28 04:23:27;;;;;;;4.93;3.03;;;;;;;;;;5095276;28;20446;-61
2021/09/28 04:25:55;;;;;;;3.43;3.13;;;;;;;;;;5092092;28;20462;-61
2021/09/28 04:28:22;;;;;;;7.17;3.87;;;;;;;;;;5091098;28;20486;-60
2021/09/28 04:30:50;;;;;;;5.77;3.50;;;;;;;;;;5090731;28;20447;-62
2021/09/28 04:33:17;;;;;;;11.40;4.00;;;;;;;;;;5091218;28;20446;-59
2021/09/28 04:35:44;;;;;;;5.70;3.90;;;;;;;;;;5090596;28;20533;-60
2021/09/28 04:38:11;;;;;;;9.30;4.60;;;;;;;;;;5090512;28;20438;-61
2021/09/28 04:40:39;;;;;;;5.10;4.00;;;;;;;;;;5090480;28;20443;-60
2021/09/28 04:43:07;;;;;;;5.00;4.23;;;;;;;;;;5090391;28;20443;-61
2021/09/28 04:45:34;;;;;;;5.40;4.40;;;;;;;;;;5090302;28;20534;-61
2021/09/28 04:48:02;;;;;;;7.13;5.17;;;;;;;;;;5089554;28;20523;-61
2021/09/28 04:50:29;;;;;;;9.43;6.20;;;;;;;;;;5090193;28;20442;-60
2021/09/28 04:52:56;;;;;;;9.30;4.73;;;;;;;;;;5089728;28;20507;-62
2021/09/28 04:55:23;;;;;;;12.37;5.23;;;;;;;;;;5089799;28;20535;-62
2021/09/28 04:57:51;;;;;;;8.97;5.87;;;;;;;;;;5089947;28;20496;-62
2021/09/28 05:00:19;;;;;;;7.13;5.30;;;;;;;;;;5089999;28;20810;-61
2021/09/28 05:02:47;;;;;;;7.07;5.20;;;;;;;;;;5089919;28;20865;-59
2021/09/28 05:05:14;;;;;;;7.30;5.40;;;;;;;;;;5089809;28;20474;-60
2021/09/28 05:07:41;;;;;;;7.60;5.60;;;;;;;;;;5089386;28;20989;-60
2021/09/28 05:10:09;;;;;;;5.90;5.13;;;;;;;;;;5089828;28;20442;-60
2021/09/28 05:12:36;;;;;;;8.47;6.03;;;;;;;;;;5089627;28;20487;-61
2021/09/28 05:15:04;;;;;;;11.17;7.10;;;;;;;;;;5089813;28;20793;-60
2021/09/28 05:17:32;;;;;;;9.73;6.60;;;;;;;;;;5089624;28;20508;-61
2021/09/28 05:20:00;;;;;;;15.13;7.30;;;;;;;;;;5075923;28;20444;-61
2021/09/28 05:22:27;;;;;;;17.83;8.03;;;;;;;;;;5076410;28;20855;-59
2021/09/28 05:24:54;;;;;;;10.70;7.93;;;;;;;;;;5075791;28;20444;-61
2021/09/28 05:27:21;;;;;;;11.77;9.20;;;;;;;;;;5075767;28;20471;-61
2021/09/28 05:29:49;;;;;;;14.87;9.60;;;;;;;;;;5075530;28;20446;-62
2021/09/28 05:32:16;;;;;;;14.77;9.73;;;;;;;;;;5075730;28;20443;-60
2021/09/28 05:34:44;;;;;;;12.07;10.07;;;;;;;;;;5075959;28;20921;-61
2021/09/28 05:37:12;;;;;;;17.03;11.50;;;;;;;;;;5075285;28;20882;-61
2021/09/28 05:39:39;;;;;;;14.37;10.33;;;;;;;;;;5075793;28;20504;-61
2021/09/28 05:42:06;;;;;;;16.17;11.60;;;;;;;;;;5076225;28;20443;-60
2021/09/28 05:44:34;;;;;;;14.97;12.30;;;;;;;;;;5075708;28;20527;-62
2021/09/28 05:47:02;;;;;;;15.77;11.73;;;;;;;;;;5075840;28;20537;-60
2021/09/28 05:49:29;;;;;;;15.83;12.33;;;;;;;;;;5075619;28;20807;-61
2021/09/28 05:51:59;;;;;;;17.10;11.40;;;;;;;;;;5077498;28;20451;-62
2021/09/28 05:54:26;;;;;;;15.13;11.67;;;;;;;;;;5080314;28;20538;-60
2021/09/28 05:56:54;;;;;;;15.73;12.73;;;;;;;;;;5079077;28;20463;-58
2021/09/28 05:59:22;;;;;;;17.90;12.13;;;;;;;;;;5080952;28;20471;-60
2021/09/28 06:01:49;;;;;;;14.80;11.43;;;;;;;;;;5081089;28;20435;-59
2021/09/28 06:04:17;;;;;;;16.40;11.73;;;;;;;;;;5080831;28;20475;-60
2021/09/28 06:06:44;;;;;;;14.50;13.00;;;;;;;;;;5078462;28;20526;-60
2021/09/28 06:09:13;;;;;;;19.90;14.37;;;;;;;;;;5080649;28;20439;-61
2021/09/28 06:11:43;;;;;;;15.80;12.27;;;;;;;;;;5081792;28;20497;-59
2021/09/28 06:14:10;;;;;;;16.40;13.23;;;;;;;;;;5076964;28;20461;-60
2021/09/28 06:16:37;;;;;;;24.53;14.20;;;;;;;;;;5077318;28;20516;-60
2021/09/28 06:19:05;;;;;;;26.83;13.20;;;;;;;;;;5076571;28;20489;-60
2021/09/28 06:21:32;;;;;;;15.17;12.07;;;;;;;;;;5076435;28;20799;-61
2021/09/28 06:23:59;;;;;;;12.23;10.13;;;;;;;;;;5076719;28;20526;-60
2021/09/28 06:26:28;;;;;;;19.10;11.70;;;;;;;;;;5076437;28;20803;-60
2021/09/28 06:28:55;;;;;;;15.30;10.30;;;;;;;;;;5076253;28;20479;-61
2021/09/28 06:31:22;;;;;;;12.53;9.73;;;;;;;;;;5074751;28;20455;-61
2021/09/28 06:33:49;;;;;;;11.83;9.87;;;;;;;;;;5075460;28;20496;-60
2021/09/28 06:36:17;;;;;;;12.60;9.00;;;;;;;;;;5075600;28;20852;-59
2021/09/28 06:38:44;;;;;;;11.97;8.90;;;;;;;;;;5074940;28;20931;-60
2021/09/28 06:41:12;;;;;;;12.27;8.57;;;;;;;;;;5074720;28;20512;-61
2021/09/28 06:43:40;;;;;;;11.60;8.93;;;;;;;;;;5074521;28;20443;-62
2021/09/28 06:46:08;;;;;;;11.80;8.73;;;;;;;;;;5074291;28;20471;-59
2021/09/28 06:48:35;;;;;;;11.57;8.60;;;;;;;;;;5073998;28;20497;-61
2021/09/28 06:51:02;;;;;;;13.10;9.37;;;;;;;;;;5073924;28;20435;-58
2021/09/28 06:53:29;;;;;;;12.40;8.60;;;;;;;;;;5074022;28;20448;-61
2021/09/28 06:55:57;;;;;;;13.10;7.80;;;;;;;;;;5073661;28;20875;-61
2021/09/28 06:58:24;;;;;;;10.10;8.20;;;;;;;;;;5074432;28;20842;-60
2021/09/28 07:00:52;;;;;;;11.73;7.93;;;;;;;;;;5075441;28;20455;-59
2021/09/28 07:03:20;;;;;;;11.97;8.47;;;;;;;;;;5074332;28;20544;-59
2021/09/28 07:05:48;;;;;;;14.23;9.20;;;;;;;;;;5074056;28;20561;-60
2021/09/28 07:08:15;;;;;;;10.10;8.00;;;;;;;;;;5073412;28;21070;-61
2021/09/28 07:10:42;;;;;;;12.43;8.37;;;;;;;;;;5073372;28;20443;-61
2021/09/28 07:13:09;;;;;;;9.93;7.67;;;;;;;;;;5073786;28;20439;-61
2021/09/28 07:15:37;;;;;;;11.70;8.60;;;;;;;;;;5073174;28;20467;-61
2021/09/28 07:18:05;;;;;;;8.90;7.17;;;;;;;;;;5073680;28;20500;-62
2021/09/28 07:20:33;;;;;;;11.27;7.13;;;;;;;;;;5073725;28;20447;-62
2021/09/28 07:23:00;;;;;;;10.93;7.50;;;;;;;;;;5073561;28;20451;-60
2021/09/28 07:25:27;;;;;;;10.10;8.07;;;;;;;;;;5072929;28;20471;-60
2021/09/28 07:27:58;;;;;;;12.80;8.63;;;;;;;;;;5073072;28;20479;-60
2021/09/28 07:30:25;;;;;;;14.20;8.57;;;;;;;;;;5073469;28;20857;-61
2021/09/28 07:32:52;;;;;;;11.83;9.53;;;;;;;;;;5073404;28;20516;-60
2021/09/28 07:35:21;;;;;;;13.63;9.73;;;;;;;;;;5073309;28;20493;-61
2021/09/28 07:37:48;;;;;;;14.80;9.63;;;;;;;;;;5073119;28;20489;-61
2021/09/28 07:40:17;;;;;;;14.63;9.90;;;;;;;;;;5073373;28;20496;-62
2021/09/28 07:42:44;;;;;;;13.00;9.37;;;;;;;;;;5073050;28;20537;-61
2021/09/28 07:45:11;;;;;;;11.50;9.10;;;;;;;;;;5073168;28;20459;-61
2021/09/28 07:47:38;;;;;;;14.33;9.30;;;;;;;;;;5073183;28;20475;-60
2021/09/28 07:50:06;;;;;;;13.60;9.40;;;;;;;;;;5072970;28;20451;-60
2021/09/28 07:52:35;;;;;;;15.13;9.57;;;;;;;;;;5072803;28;20451;-60
2021/09/28 07:55:02;;;;;;;15.60;10.03;;;;;;;;;;5073237;28;20465;-61
2021/09/28 07:57:29;;;;;;;15.43;10.50;;;;;;;;;;5073087;28;20841;-62
2021/09/28 07:59:57;;;;;;;13.00;9.90;;;;;;;;;;5072724;28;20862;-62
2021/09/28 08:02:24;;;;;;;17.83;10.00;;;;;;;;;;5072525;28;20447;-62
2021/09/28 08:04:51;;;;;;;13.87;9.70;;;;;;;;;;5072707;28;20501;-61
2021/09/28 08:07:18;;;;;;;14.53;10.47;;;;;;;;;;5072810;28;20458;-61
2021/09/28 08:09:47;;;;;;;15.60;10.80;;;;;;;;;;5073064;28;20479;-62
2021/09/28 08:12:14;;;;;;;14.23;10.43;;;;;;;;;;5073192;28;20455;-61
2021/09/28 08:14:42;;;;;;;20.17;10.57;;;;;;;;;;5073106;28;20440;-59
2021/09/28 08:17:09;;;;;;;14.20;9.93;;;;;;;;;;5073001;28;20860;-62
2021/09/28 08:19:39;;;;;;;14.27;10.60;;;;;;;;;;5073079;28;20438;-62
2021/09/28 08:22:07;;;;;;;17.03;11.10;;;;;;;;;;5073443;28;20510;-60
2021/09/28 08:24:40;;;;;;;12.37;9.50;;;;;;;;;;5072882;28;20802;-59
2021/09/28 08:29:54;;;;;;;17.37;11.40;;;;;;;;;;5081192;28;20482;-61
2021/09/28 08:32:21;;;;;;;16.87;11.57;;;;;;;;;;5074647;28;20493;-62
2021/09/28 08:34:48;;;;;;;15.13;11.50;;;;;;;;;;5072644;28;20446;-62
2021/09/28 08:37:16;;;;;;;16.47;11.03;;;;;;;;;;5072501;28;20443;-61
2021/09/28 08:39:43;;;;;;;17.47;11.60;;;;;;;;;;5072713;28;20447;-61
2021/09/28 08:42:12;;;;;;;17.57;11.30;;;;;;;;;;5072834;28;20451;-60
2021/09/28 08:44:39;;;;;;;13.73;10.50;;;;;;;;;;5072614;28;20451;-61
2021/09/28 08:47:06;;;;;;;17.77;10.50;;;;;;;;;;5071712;28;20475;-60
2021/09/28 08:49:35;;;;;;;13.10;8.90;;;;;;;;;;5072030;28;20482;-61
2021/09/28 08:52:03;;;;;;;13.77;9.97;;;;;;;;;;5072509;28;20444;-61
2021/09/28 08:54:30;;;;;;;12.20;9.60;;;;;;;;;;5074079;28;20516;-61
2021/09/28 08:56:58;;;;;;;15.47;9.73;;;;;;;;;;5075647;28;20537;-61
2021/09/28 08:59:39;;;;;;;15.20;10.37;;;;;;;;;;5075677;28;20443;-61
2021/09/28 09:02:08;;;;;;;17.37;10.30;;;;;;;;;;5076232;28;20484;-60
2021/09/28 09:04:36;;;;;;;15.40;10.90;;;;;;;;;;5076486;28;20447;-61
2021/09/28 09:07:18;;;;;;;12.83;10.40;;;;;;;;;;5075668;28;20536;-62
2021/09/28 09:09:48;;;;;;;13.00;9.33;;;;;;;;;;5076450;28;20467;-60
2021/09/28 09:12:28;;;;;;;13.33;9.30;;;;;;;;;;5075697;28;20496;-59
2021/09/28 09:15:16;;;;;;;16.63;10.67;;;;;;;;;;5076340;28;20480;-61
2021/09/28 09:17:43;;;;;;;13.10;10.13;;;;;;;;;;5075908;28;20481;-61
2021/09/28 09:20:22;;;;;;;21.20;10.30;;;;;;;;;;5078019;28;20439;-60
2021/09/28 09:22:49;;;;;;;15.40;10.97;;;;;;;;;;5076028;28;20434;-61
2021/09/28 09:25:20;;;;;;;14.87;10.30;;;;;;;;;;5076925;28;20988;-60
2021/09/28 09:27:47;;;;;;;16.47;10.90;;;;;;;;;;5075488;28;20543;-63
2021/09/28 09:30:19;;;;;;;14.27;9.97;;;;;;;;;;5075812;28;20907;-58
2021/09/28 09:32:47;;;;;;;15.97;10.60;;;;;;;;;;5075580;28;20434;-60
2021/09/28 09:35:19;;;;;;;17.27;10.33;;;;;;;;;;5075255;28;20478;-60
2021/09/28 09:37:46;;;;;;;18.50;10.90;;;;;;;;;;5075796;28;20511;-60
2021/09/28 09:40:14;;;;;;;19.87;10.63;;;;;;;;;;5075449;28;20474;-60
2021/09/28 09:42:54;;;;;;;13.97;10.53;;;;;;;;;;5075651;28;20466;-61
2021/09/28 09:45:24;;;;;;;20.13;10.73;;;;;;;;;;5074721;28;20510;-61
2021/09/28 09:47:51;;;;;;;12.67;9.37;;;;;;;;;;5075260;28;20867;-61
2021/09/28 09:50:20;;;;;;;16.17;9.20;;;;;;;;;;5075384;28;20939;-61
2021/09/28 09:53:11;;;;;;;15.83;10.43;;;;;;;;;;5075434;28;20447;-61
2021/09/28 09:55:43;;;;;;;15.13;10.30;;;;;;;;;;5060370;28;20479;-60
2021/09/28 09:58:12;;;;;;;18.17;11.20;;;;;;;;;;5075433;28;20871;-61
2021/09/28 10:00:41;;;;;;;17.87;10.40;;;;;;;;;;5075507;28;20443;-61
2021/09/28 10:03:08;;;;;;;13.17;9.70;;;;;;;;;;5074784;28;20457;-60
2021/09/28 10:05:37;;;;;;;17.33;9.83;;;;;;;;;;5075286;28;20463;-61
2021/09/28 10:08:07;;;;;;;13.97;10.17;;;;;;;;;;5074676;28;20455;-60
2021/09/28 10:10:35;;;;;;;13.60;9.73;;;;;;;;;;5075083;28;20427;-60
2021/09/28 10:13:03;;;;;;;10.40;8.03;;;;;;;;;;5074616;28;20439;-60
2021/09/28 10:15:30;;;;;;;14.57;8.87;;;;;;;;;;5074919;28;20467;-59
2021/09/28 10:17:59;;;;;;;14.70;9.63;;;;;;;;;;5075499;28;20865;-60
2021/09/28 10:20:28;;;;;;;16.33;9.27;;;;;;;;;;5075045;28;20516;-61
2021/09/28 10:22:56;;;;;;;15.53;8.93;;;;;;;;;;5074682;28;20490;-59
2021/09/28 10:25:26;;;;;;;15.03;8.47;;;;;;;;;;5074549;28;20528;-61
2021/09/28 10:27:54;;;;;;;15.80;8.40;;;;;;;;;;5075068;28;20487;-61
2021/09/28 10:30:38;;;;;;;13.50;8.83;;;;;;;;;;5074257;28;20894;-60
2021/09/28 10:33:07;;;;;;;13.97;8.90;;;;;;;;;;5073941;28;20419;-60
2021/09/28 10:35:37;;;;;;;13.40;8.63;;;;;;;;;;5074185;28;20459;-61
2021/09/28 10:38:05;;;;;;;16.93;10.83;;;;;;;;;;5074127;28;20872;-59
2021/09/28 10:40:49;;;;;;;11.90;9.80;;;;;;;;;;5075432;28;20431;-60
2021/09/28 10:43:26;;;;;;;15.13;9.10;;;;;;;;;;5074125;28;20454;-59
2021/09/28 10:45:54;;;;;;;14.03;9.30;;;;;;;;;;5073671;28;20539;-60
2021/09/28 10:48:40;;;;;;;10.73;8.43;;;;;;;;;;5074023;28;20456;-62
2021/09/28 10:51:10;;;;;;;13.73;7.90;;;;;;;;;;5075203;28;20443;-60
2021/09/28 10:53:39;;;;;;;9.70;7.43;;;;;;;;;;5074175;28;20538;-61
2021/09/28 10:56:08;;;;;;;12.43;8.50;;;;;;;;;;5073632;28;20473;-59
2021/09/28 10:58:50;;;;;;;12.33;9.80;;;;;;;;;;5073299;28;20440;-59
2021/09/28 11:01:17;;;;;;;14.43;8.83;;;;;;;;;;5074532;28;20451;-60
2021/09/28 11:03:56;;;;;;;12.30;8.97;;;;;;;;;;5076800;28;20508;-60
2021/09/28 11:06:44;;;;;;;11.57;8.20;;;;;;;;;;5079125;28;20525;-59
2021/09/28 11:09:12;;;;;;;11.10;8.00;;;;;;;;;;5050938;28;20564;-59
2021/09/28 11:11:40;;;;;;;12.40;8.23;;;;;;;;;;5076672;28;20443;-58
2021/09/28 11:14:08;;;;;;;12.17;7.30;;;;;;;;;;5076915;28;20512;-60
2021/09/28 11:16:40;;;;;;;13.43;7.50;;;;;;;;;;5076585;28;20465;-60
2021/09/28 11:19:09;;;;;;;13.47;8.17;;;;;;;;;;5076386;28;20516;-59
2021/09/28 11:21:37;;;;;;;11.37;7.03;;;;;;;;;;5075075;28;20443;-61
2021/09/28 11:24:05;;;;;;;13.30;8.03;;;;;;;;;;5075602;28;20531;-60
2021/09/28 11:26:33;;;;;;;9.13;7.50;;;;;;;;;;5075052;28;21097;-60
2021/09/28 11:29:02;;;;;;;9.83;8.10;;;;;;;;;;5075575;28;21053;-59
2021/09/28 11:31:33;;;;;;;15.27;8.40;;;;;;;;;;5076661;28;21013;-61
2021/09/28 11:34:01;;;;;;;13.67;8.90;;;;;;;;;;5076967;28;20443;-59
2021/09/28 11:36:33;;;;;;;9.73;8.50;;;;;;;;;;5076433;28;20459;-60
2021/09/28 11:39:00;;;;;;;11.67;8.10;;;;;;;;;;5074704;28;20435;-60
2021/09/28 11:41:28;;;;;;;9.37;7.60;;;;;;;;;;5074428;28;20512;-60
2021/09/28 11:43:56;;;;;;;10.70;7.00;;;;;;;;;;5073753;28;20444;-61
2021/09/28 11:46:24;;;;;;;12.87;7.20;;;;;;;;;;5073021;28;20463;-59
2021/09/28 11:48:56;;;;;;;11.03;7.27;;;;;;;;;;5073126;28;20484;-60
2021/09/28 11:51:25;;;;;;;11.50;6.90;;;;;;;;;;5073212;28;20431;-60
2021/09/28 11:53:54;;;;;;;11.23;6.90;;;;;;;;;;5073189;28;20443;-60
2021/09/28 11:56:22;;;;;;;13.00;7.50;;;;;;;;;;5073156;28;20528;-59
2021/09/28 11:58:50;;;;;;;13.03;6.73;;;;;;;;;;5073679;28;20498;-59
2021/09/28 12:01:17;;;;;;;13.33;7.43;;;;;;;;;;5073084;28;20997;-59
2021/09/28 12:04:09;;;;;;;11.07;6.93;;;;;;;;;;5073306;28;20443;-60
2021/09/28 12:09:24;;;;;;;7.87;5.20;;;;;;;;;;5066483;28;20475;-61
2021/09/28 12:11:57;;;;;;;9.13;5.40;;;;;;;;;;5073115;28;20444;-59
2021/09/28 12:14:30;;;;;;;12.57;7.20;;;;;;;;;;5072949;28;20542;-59
2021/09/28 12:17:08;;;;;;;8.00;6.43;;;;;;;;;;5074292;28;20502;-59
2021/09/28 12:19:35;;;;;;;9.83;6.20;;;;;;;;;;5072679;28;20477;-61
2021/09/28 12:22:02;;;;;;;8.10;6.60;;;;;;;;;;5072948;28;20451;-60
2021/09/28 12:24:41;;;;;;;10.00;6.97;;;;;;;;;;5073811;28;20949;-59
2021/09/28 12:27:09;;;;;;;8.00;7.20;;;;;;;;;;5073707;28;20459;-59
2021/09/28 12:29:39;;;;;;;9.03;5.60;;;;;;;;;;5076013;28;20482;-60
2021/09/28 12:32:07;;;;;;;11.93;6.90;;;;;;;;;;5077201;28;20473;-61
2021/09/28 12:34:47;;;;;;;9.03;6.10;;;;;;;;;;5076674;28;20943;-61
2021/09/28 12:37:14;;;;;;;8.10;5.77;;;;;;;;;;5076069;28;20520;-60
2021/09/28 12:39:58;;;;;;;12.60;6.90;;;;;;;;;;5076729;28;20443;-60
2021/09/28 12:42:25;;;;;;;7.70;5.73;;;;;;;;;;5076920;28;20428;-62
2021/09/28 12:44:56;;;;;;;7.77;6.33;;;;;;;;;;5076349;28;20513;-61
2021/09/28 12:47:28;;;;;;;8.70;6.43;;;;;;;;;;5077267;28;20443;-60
2021/09/28 12:49:55;;;;;;;9.53;6.30;;;;;;;;;;5076602;28;20515;-60
2021/09/28 12:52:23;;;;;;;5.90;5.00;;;;;;;;;;5076071;28;20602;-61
2021/09/28 12:54:51;;;;;;;10.47;5.90;;;;;;;;;;5075855;28;20504;-59
2021/09/28 12:57:19;;;;;;;10.57;5.67;;;;;;;;;;5076098;28;20505;-61
2021/09/28 12:59:46;;;;;;;9.23;6.00;;;;;;;;;;5075686;28;20437;-61
2021/09/28 13:02:13;;;;;;;6.00;5.30;;;;;;;;;;5076163;28;20490;-61
2021/09/28 13:04:41;;;;;;;11.63;6.23;;;;;;;;;;5076098;28;20517;-61
2021/09/28 13:07:09;;;;;;;10.87;6.00;;;;;;;;;;5075555;28;20484;-61
2021/09/28 13:09:36;;;;;;;7.67;6.17;;;;;;;;;;5075791;28;20618;-60
2021/09/28 13:12:05;;;;;;;8.43;6.30;;;;;;;;;;5075863;28;20444;-59
2021/09/28 13:14:32;;;;;;;7.93;6.17;;;;;;;;;;5075500;28;20452;-61
2021/09/28 13:17:00;;;;;;;10.03;5.80;;;;;;;;;;5075843;28;20462;-60
2021/09/28 13:19:28;;;;;;;8.17;5.93;;;;;;;;;;5075905;28;20446;-59
2021/09/28 13:21:55;;;;;;;10.03;6.30;;;;;;;;;;5075631;28;20883;-59
2021/09/28 13:24:22;;;;;;;9.90;6.90;;;;;;;;;;5075715;28;20510;-60
2021/09/28 13:26:49;;;;;;;7.93;5.20;;;;;;;;;;5076313;28;20534;-60
2021/09/28 13:29:18;;;;;;;5.83;4.70;;;;;;;;;;5075652;28;20451;-59
2021/09/28 13:31:45;;;;;;;9.53;5.50;;;;;;;;;;5075937;28;20450;-59
2021/09/28 13:34:13;;;;;;;10.20;4.87;;;;;;;;;;5076125;28;20440;-61
2021/09/28 13:36:41;;;;;;;5.03;4.47;;;;;;;;;;5075680;28;20464;-60
2021/09/28 13:39:08;;;;;;;8.30;5.37;;;;;;;;;;5075016;28;20449;-59
2021/09/28 13:41:36;;;;;;;9.77;6.80;;;;;;;;;;5075983;28;20449;-61
2021/09/28 13:44:04;;;;;;;6.93;4.67;;;;;;;;;;5079604;28;20502;-61
2021/09/28 13:46:33;;;;;;;8.93;5.23;;;;;;;;;;5075493;28;20509;-61
2021/09/28 13:49:00;;;;;;;6.53;5.00;;;;;;;;;;5074949;28;20448;-57
2021/09/28 13:51:28;;;;;;;7.27;5.30;;;;;;;;;;5074779;28;20533;-61
2021/09/28 13:53:55;;;;;;;6.23;4.37;;;;;;;;;;5074771;28;20444;-60
2021/09/28 13:56:22;;;;;;;5.93;4.40;;;;;;;;;;5075632;28;20586;-60
2021/09/28 13:58:49;;;;;;;7.17;4.63;;;;;;;;;;5075155;28;20439;-60
2021/09/28 14:01:18;;;;;;;6.60;4.73;;;;;;;;;;5074908;28;20851;-60
2021/09/28 14:03:46;;;;;;;5.80;4.80;;;;;;;;;;5074677;28;20448;-58
2021/09/28 14:06:17;;;;;;;5.77;4.13;;;;;;;;;;5074516;28;20464;-60
2021/09/28 14:08:45;;;;;;;7.30;5.13;;;;;;;;;;5075003;28;20961;-61
2021/09/28 14:11:13;;;;;;;10.70;4.37;;;;;;;;;;5076130;28;20479;-61
2021/09/28 14:13:40;;;;;;;7.03;4.30;;;;;;;;;;5075648;28;20478;-60
2021/09/28 14:16:08;;;;;;;5.23;3.93;;;;;;;;;;5074631;28;20521;-60
2021/09/28 14:18:35;;;;;;;9.23;5.20;;;;;;;;;;5074635;28;20593;-61
2021/09/28 14:21:04;;;;;;;6.70;3.90;;;;;;;;;;5074341;28;20512;-61
2021/09/28 14:23:32;;;;;;;9.20;4.43;;;;;;;;;;5074925;28;20447;-60
2021/09/28 14:25:59;;;;;;;4.73;3.40;;;;;;;;;;5074933;28;20464;-60
2021/09/28 14:28:26;;;;;;;4.20;3.30;;;;;;;;;;5074836;28;20501;-61
2021/09/28 14:30:53;;;;;;;6.07;3.63;;;;;;;;;;5074698;28;20474;-61
2021/09/28 14:33:20;;;;;;;4.97;3.63;;;;;;;;;;5074584;28;20443;-61
2021/09/28 14:35:48;;;;;;;6.10;3.70;;;;;;;;;;5074416;28;20459;-61
2021/09/28 14:38:16;;;;;;;4.63;3.67;;;;;;;;;;5074396;28;20451;-59
2021/09/28 14:40:44;;;;;;;6.17;3.10;;;;;;;;;;5074890;28;20927;-61
2021/09/28 14:43:11;;;;;;;4.67;3.10;;;;;;;;;;5074670;28;20493;-61
2021/09/28 14:45:38;;;;;;;4.50;2.97;;;;;;;;;;5074431;28;20817;-59
2021/09/28 14:48:10;;;;;;;6.30;3.37;;;;;;;;;;5075654;28;20448;-62
2021/09/28 14:50:37;;;;;;;6.90;3.83;;;;;;;;;;5074979;28;20908;-59